createdAt,value
2023-06-06T00:00:23.319Z,50.25
2023-06-06T00:02:51.335Z,52.41
2023-06-06T00:05:39.172Z,50.43
2023-06-06T00:08:24.025Z,50.17
2023-06-06T00:11:16.616Z,51.26
2023-06-06T00:14:04.173Z,50.23
2023-06-06T00:16:34.330Z,52.19
2023-06-06T00:19:02.321Z,50.08
2023-06-06T00:21:37.407Z,51.29
2023-06-06T00:24:04.726Z,50.98
2023-06-06T00:26:31.736Z,50.39
2023-06-06T00:28:58.684Z,51.07
2023-06-06T00:31:25.647Z,50.34
2023-06-06T00:33:52.660Z,51.45
2023-06-06T00:36:19.573Z,52.43
2023-06-06T00:38:48.504Z,51.24
2023-06-06T00:41:15.678Z,53.22
2023-06-06T00:43:42.590Z,50.89
2023-06-06T00:46:09.567Z,52.53
2023-06-06T00:48:36.602Z,51.24
2023-06-06T00:51:03.865Z,50.82
2023-06-06T00:53:31.105Z,52.43
2023-06-06T00:55:59.366Z,54.52
2023-06-06T00:58:28.472Z,52.16
2023-06-06T01:00:56.381Z,52.63
2023-06-06T01:03:26.208Z,53.32
2023-06-06T01:06:08.520Z,51.23
2023-06-06T01:08:56.500Z,53.14
2023-06-06T01:12:04.187Z,53.60
2023-06-06T01:15:06.749Z,54.64
2023-06-06T01:18:03.311Z,52.88
2023-06-06T01:20:32.284Z,53.90
2023-06-06T01:23:00.561Z,56.12
2023-06-06T01:25:27.808Z,53.63
2023-06-06T01:27:56.712Z,53.15
2023-06-06T01:30:27.088Z,54.43
2023-06-06T01:33:08.854Z,52.90
2023-06-06T01:36:01.916Z,52.16
2023-06-06T01:38:33.711Z,52.38
2023-06-06T01:41:04.087Z,52.01
2023-06-06T01:43:33.610Z,52.55
2023-06-06T01:46:01.897Z,52.98
2023-06-06T01:48:29.837Z,52.01
2023-06-06T01:50:57.109Z,53.02
2023-06-06T01:53:24.021Z,54.08
2023-06-06T01:55:52.208Z,52.36
2023-06-06T01:58:20.344Z,52.73
2023-06-06T02:00:47.400Z,53.06
2023-06-06T02:03:14.589Z,52.94
2023-06-06T02:05:41.744Z,52.29
2023-06-06T02:08:08.852Z,52.84
2023-06-06T02:10:37.892Z,53.12
2023-06-06T02:13:04.930Z,52.70
2023-06-06T02:15:31.891Z,53.08
2023-06-06T02:18:01.410Z,54.77
2023-06-06T02:20:29.386Z,54.16
2023-06-06T02:22:56.444Z,54.21
2023-06-06T02:25:25.456Z,55.65
2023-06-06T02:27:55.265Z,55.50
2023-06-06T02:30:24.293Z,54.79
2023-06-06T02:32:51.893Z,55.19
2023-06-06T02:35:22.597Z,55.80
2023-06-06T02:37:49.781Z,55.21
2023-06-06T02:40:16.871Z,56.57
2023-06-06T02:42:43.953Z,59.34
2023-06-06T02:45:11.918Z,59.83
2023-06-06T02:47:39.614Z,59.63
2023-06-06T02:50:07.649Z,56.70
2023-06-06T02:52:34.728Z,56.41
2023-06-06T02:55:01.769Z,56.43
2023-06-06T02:57:28.794Z,56.04
2023-06-06T02:59:56.528Z,56.88
2023-06-06T03:02:23.482Z,60.31
2023-06-06T03:04:50.480Z,58.57
2023-06-06T03:07:18.359Z,60.93
2023-06-06T03:09:45.341Z,60.52
2023-06-06T03:12:13.112Z,60.76
2023-06-06T03:14:55.248Z,61.09
2023-06-06T03:17:23.297Z,61.15
2023-06-06T03:19:50.405Z,62.20
2023-06-06T03:22:20.266Z,60.81
2023-06-06T03:24:48.006Z,61.64
2023-06-06T03:27:15.450Z,61.98
2023-06-06T03:29:42.489Z,61.37
2023-06-06T03:32:10.142Z,60.84
2023-06-06T03:34:37.176Z,62.08
2023-06-06T03:37:04.279Z,61.38
2023-06-06T03:39:31.737Z,62.61
2023-06-06T03:41:58.745Z,62.96
2023-06-06T03:44:25.965Z,64.76
2023-06-06T03:46:52.930Z,66.59
2023-06-06T03:49:19.952Z,66.57
2023-06-06T03:51:47.615Z,63.69
2023-06-06T03:54:14.633Z,65.40
2023-06-06T03:56:43.911Z,63.80
2023-06-06T03:59:14.343Z,63.20
2023-06-06T04:01:42.705Z,63.05
2023-06-06T04:04:10.166Z,64.19
2023-06-06T04:06:39.009Z,63.36
2023-06-06T04:09:09.501Z,64.17
2023-06-06T04:11:37.349Z,64.60
2023-06-06T04:14:04.702Z,65.88
2023-06-06T04:16:31.713Z,67.15
2023-06-06T04:18:58.950Z,63.82
2023-06-06T04:21:25.985Z,63.41
2023-06-06T04:23:55.586Z,63.79
2023-06-06T04:26:27.257Z,64.87
2023-06-06T04:28:54.974Z,64.89
2023-06-06T04:31:24.557Z,63.40
2023-06-06T04:33:57.499Z,63.71
2023-06-06T04:36:27.799Z,62.52
2023-06-06T04:39:02.454Z,63.02
2023-06-06T04:41:53.633Z,61.69
2023-06-06T04:44:21.993Z,62.35
2023-06-06T04:46:49.514Z,64.13
2023-06-06T04:49:17.384Z,62.82
2023-06-06T04:51:45.805Z,63.02
2023-06-06T04:54:12.823Z,62.43
2023-06-06T04:56:41.436Z,60.93
2023-06-06T04:59:08.631Z,61.66
2023-06-06T05:01:38.004Z,62.09
2023-06-06T05:04:06.015Z,63.19
2023-06-06T05:06:35.530Z,61.45
2023-06-06T05:09:06.364Z,61.19
2023-06-06T05:11:33.660Z,61.26
2023-06-06T05:14:00.974Z,61.03
2023-06-06T05:16:28.506Z,60.85
2023-06-06T05:18:55.584Z,59.01
2023-06-06T05:21:22.901Z,60.41
2023-06-06T05:23:49.910Z,59.46
2023-06-06T05:26:17.041Z,60.40
2023-06-06T05:28:44.040Z,58.86
2023-06-06T05:31:11.357Z,59.08
2023-06-06T05:33:43.657Z,57.77
2023-06-06T05:36:11.574Z,57.80
2023-06-06T05:38:38.614Z,58.04
2023-06-06T05:41:05.771Z,58.85
2023-06-06T05:43:34.801Z,59.69
2023-06-06T05:46:02.969Z,59.45
2023-06-06T05:48:30.758Z,58.01
2023-06-06T05:50:58.807Z,58.26
2023-06-06T05:53:26.250Z,57.47
2023-06-06T05:55:53.290Z,57.58
2023-06-06T05:58:20.295Z,57.53
2023-06-06T06:00:47.458Z,57.47
2023-06-06T06:03:15.697Z,56.36
2023-06-06T06:05:43.846Z,57.44
2023-06-06T06:08:10.995Z,56.03
2023-06-06T06:10:39.598Z,58.44
2023-06-06T06:13:07.353Z,55.58
2023-06-06T06:15:35.868Z,55.16
2023-06-06T06:18:04.638Z,55.89
2023-06-06T06:20:31.682Z,55.45
2023-06-06T06:22:58.586Z,55.25
2023-06-06T06:25:25.975Z,52.06
2023-06-06T06:27:53.046Z,54.05
2023-06-06T06:30:20.399Z,56.58
2023-06-06T06:32:47.928Z,56.30
2023-06-06T06:35:15.076Z,54.18
2023-06-06T06:37:42.554Z,55.90
2023-06-06T06:40:11.596Z,57.09
2023-06-06T06:42:43.215Z,53.24
2023-06-06T06:45:13.505Z,53.94
2023-06-06T06:47:42.018Z,53.65
2023-06-06T06:50:09.566Z,52.78
2023-06-06T06:52:37.335Z,51.24
2023-06-06T06:55:09.091Z,52.08
2023-06-06T06:57:38.222Z,53.27
2023-06-06T07:00:16.722Z,54.62
2023-06-06T07:02:47.571Z,54.62
2023-06-06T07:05:18.870Z,52.61
2023-06-06T07:07:51.913Z,54.08
2023-06-06T07:10:19.233Z,54.48
2023-06-06T07:12:51.667Z,52.32
2023-06-06T07:15:19.540Z,53.27
2023-06-06T07:17:53.040Z,51.74
2023-06-06T07:20:25.797Z,52.63
2023-06-06T07:22:57.457Z,50.10
2023-06-06T07:25:24.937Z,52.44
2023-06-06T07:27:52.314Z,53.96
2023-06-06T07:30:19.376Z,52.18
2023-06-06T07:32:48.691Z,52.01
2023-06-06T07:35:22.356Z,49.73
2023-06-06T07:40:18.526Z,50.34
2023-06-06T07:42:45.718Z,52.08
2023-06-06T07:45:13.058Z,50.64
2023-06-06T07:47:41.721Z,50.38
2023-06-06T07:50:10.061Z,51.65
2023-06-06T07:52:37.707Z,51.63
2023-06-06T07:55:07.149Z,52.75
2023-06-06T07:57:35.072Z,51.08
2023-06-06T08:00:11.991Z,48.71
2023-06-06T08:02:42.435Z,49.58
2023-06-06T08:05:10.426Z,48.32
2023-06-06T08:07:39.784Z,49.80
2023-06-06T08:10:08.031Z,47.34
2023-06-06T08:12:35.095Z,49.36
2023-06-06T08:15:02.732Z,48.39
2023-06-06T08:17:29.906Z,47.87
2023-06-06T08:19:57.003Z,47.70
2023-06-06T08:22:25.804Z,46.89
2023-06-06T08:24:52.765Z,46.56
2023-06-06T08:27:19.770Z,48.58
2023-06-06T08:29:46.817Z,49.08
2023-06-06T08:32:13.894Z,47.87
2023-06-06T08:34:40.863Z,46.72
2023-06-06T08:37:07.791Z,48.99
2023-06-06T08:39:35.327Z,47.06
2023-06-06T08:42:04.978Z,44.81
2023-06-06T08:44:32.991Z,43.53
2023-06-06T08:47:01.486Z,46.05
2023-06-06T08:49:31.683Z,43.23
2023-06-06T08:52:00.289Z,44.88
2023-06-06T08:54:28.545Z,44.33
2023-06-06T08:56:58.153Z,44.97
2023-06-06T08:59:26.997Z,47.49
2023-06-06T09:01:55.779Z,48.75
2023-06-06T09:04:24.640Z,47.45
2023-06-06T09:06:58.247Z,48.06
2023-06-06T09:09:26.639Z,46.34
2023-06-06T09:11:53.569Z,47.46
2023-06-06T09:14:20.478Z,43.79
2023-06-06T09:16:47.591Z,44.75
2023-06-06T09:19:14.918Z,44.08
2023-06-06T09:21:41.855Z,46.95
2023-06-06T09:24:08.961Z,43.37
2023-06-06T09:26:36.042Z,44.93
2023-06-06T09:29:09.463Z,41.13
2023-06-06T09:31:40.274Z,42.98
2023-06-06T09:34:09.767Z,41.37
2023-06-06T09:36:41.839Z,43.64
2023-06-06T09:39:13.770Z,42.64
2023-06-06T09:41:47.328Z,40.41
2023-06-06T09:44:29.727Z,41.80
2023-06-06T09:47:01.777Z,42.68
2023-06-06T09:49:39.262Z,43.36
2023-06-06T09:52:07.487Z,42.49
2023-06-06T09:54:34.984Z,44.71
2023-06-06T09:57:15.281Z,43.61
2023-06-06T09:59:45.620Z,42.87
2023-06-06T10:02:15.384Z,44.06
2023-06-06T10:04:43.602Z,43.95
2023-06-06T10:07:11.486Z,44.13
2023-06-06T10:09:39.315Z,42.67
2023-06-06T10:12:07.503Z,43.61
2023-06-06T10:14:34.659Z,42.64
2023-06-06T10:17:02.395Z,41.72
2023-06-06T10:19:32.242Z,42.90
2023-06-06T10:22:00.503Z,43.17
2023-06-06T10:24:29.827Z,41.45
2023-06-06T10:27:23.473Z,40.15
2023-06-06T10:30:04.082Z,42.39
2023-06-06T10:33:00.709Z,41.32
2023-06-06T10:35:29.711Z,41.10
2023-06-06T10:38:04.462Z,42.76
2023-06-06T10:40:49.753Z,41.76
2023-06-06T10:43:34.244Z,42.72
2023-06-06T10:46:04.164Z,43.68
2023-06-06T10:48:42.237Z,43.42
2023-06-06T10:51:29.827Z,43.88
2023-06-06T10:54:29.058Z,45.36
2023-06-06T10:56:57.572Z,46.60
2023-06-06T10:59:28.946Z,45.47
2023-06-06T11:01:56.970Z,44.83
2023-06-06T11:04:26.210Z,46.83
2023-06-06T11:06:55.110Z,46.61
2023-06-06T11:09:26.315Z,46.87
2023-06-06T11:12:14.738Z,49.04
2023-06-06T11:14:58.286Z,49.38
2023-06-06T11:17:51.887Z,49.71
2023-06-06T11:20:21.057Z,50.93
2023-06-06T11:23:06.989Z,49.66
2023-06-06T11:25:38.351Z,50.00
2023-06-06T11:28:06.929Z,47.85
2023-06-06T11:30:36.429Z,47.67
2023-06-06T11:33:09.940Z,48.14
2023-06-06T11:35:40.513Z,46.85
2023-06-06T11:38:07.953Z,48.25
2023-06-06T11:40:35.123Z,49.33
2023-06-06T11:43:03.736Z,49.67
2023-06-06T11:45:33.036Z,50.15
2023-06-06T11:48:14.483Z,52.21
2023-06-06T11:50:45.501Z,51.39
2023-06-06T11:53:12.540Z,51.95
2023-06-06T11:55:40.110Z,52.67
2023-06-06T11:58:07.122Z,53.18
2023-06-06T12:00:34.677Z,55.81
2023-06-06T12:03:03.435Z,54.15
2023-06-06T12:05:30.582Z,55.84
2023-06-06T12:08:01.407Z,57.02
2023-06-06T12:10:32.197Z,59.94
2023-06-06T12:13:00.766Z,62.90
2023-06-06T12:15:49.342Z,62.87
2023-06-06T12:18:17.824Z,64.52
2023-06-06T12:20:45.283Z,66.84
2023-06-06T12:23:12.309Z,68.61
2023-06-06T12:25:39.210Z,69.01
2023-06-06T12:28:10.828Z,71.16
2023-06-06T12:30:38.035Z,70.73
2023-06-06T12:33:05.794Z,73.72
2023-06-06T12:35:32.904Z,73.12
2023-06-06T12:38:05.795Z,73.19
2023-06-06T12:40:35.663Z,72.74
2023-06-06T12:43:08.142Z,72.95
2023-06-06T12:45:39.372Z,73.69
2023-06-06T12:48:07.107Z,74.18
2023-06-06T12:50:34.529Z,74.60
2023-06-06T12:53:01.686Z,74.67
2023-06-06T12:55:28.648Z,77.04
2023-06-06T12:57:56.137Z,74.65
2023-06-06T13:00:23.185Z,74.18
2023-06-06T13:02:51.116Z,76.53
2023-06-06T13:05:18.222Z,76.37
2023-06-06T13:07:45.182Z,76.38
2023-06-06T13:10:13.891Z,76.29
2023-06-06T13:12:42.254Z,77.59
2023-06-06T13:15:13.156Z,75.67
2023-06-06T13:17:40.912Z,77.00
2023-06-06T13:20:10.632Z,78.37
2023-06-06T13:22:38.316Z,76.74
2023-06-06T13:25:05.748Z,76.64
2023-06-06T13:27:32.705Z,75.86
2023-06-06T13:29:59.675Z,75.30
2023-06-06T13:32:26.985Z,75.95
2023-06-06T13:34:54.282Z,75.44
2023-06-06T13:37:23.238Z,78.16
2023-06-06T13:39:50.296Z,76.96
2023-06-06T13:42:17.299Z,73.53
2023-06-06T13:44:44.281Z,74.17
2023-06-06T13:47:11.236Z,73.69
2023-06-06T13:49:39.843Z,74.67
2023-06-06T13:52:08.147Z,77.68
2023-06-06T13:54:35.236Z,73.36
2023-06-06T13:57:04.379Z,76.13
2023-06-06T13:59:33.429Z,74.83
2023-06-06T14:02:00.745Z,75.68
2023-06-06T14:04:28.123Z,74.61
2023-06-06T14:06:56.248Z,74.05
2023-06-06T14:09:24.000Z,73.78
2023-06-06T14:11:52.125Z,73.80
2023-06-06T14:14:20.439Z,76.03
2023-06-06T14:16:47.624Z,72.59
2023-06-06T14:19:15.772Z,72.44
2023-06-06T14:21:43.275Z,73.46
2023-06-06T14:24:11.712Z,74.68
2023-06-06T14:26:40.533Z,74.17
2023-06-06T14:29:07.628Z,75.40
2023-06-06T14:31:34.652Z,77.45
2023-06-06T15:00:35.128Z,81.33
2023-06-06T15:03:03.180Z,79.23
2023-06-06T15:05:30.852Z,79.92
2023-06-06T15:08:01.655Z,79.49
2023-06-06T15:10:28.862Z,79.67
2023-06-06T15:12:55.953Z,82.18
2023-06-06T15:16:12.913Z,75.95
2023-06-06T15:18:39.852Z,75.19
2023-06-06T15:21:07.115Z,76.68
2023-06-06T15:23:34.141Z,77.66
2023-06-06T15:26:01.385Z,74.86
2023-06-06T15:28:30.420Z,75.37
2023-06-06T15:30:58.503Z,73.36
2023-06-06T15:33:25.568Z,73.01
2023-06-06T15:35:54.427Z,71.29
2023-06-06T15:38:25.258Z,70.96
2023-06-06T15:40:53.110Z,71.72
2023-06-06T15:43:20.174Z,74.90
2023-06-06T15:45:47.384Z,70.76
2023-06-06T15:48:19.535Z,72.43
2023-06-06T15:50:46.675Z,75.02
2023-06-06T15:53:13.684Z,73.98
2023-06-06T15:55:41.515Z,72.42
2023-06-06T15:58:08.437Z,71.61
2023-06-06T16:00:35.429Z,70.51
2023-06-06T16:03:02.559Z,69.96
2023-06-06T16:05:32.424Z,69.96
2023-06-06T16:08:00.347Z,72.08
2023-06-06T16:10:27.320Z,69.43
2023-06-06T16:12:54.260Z,70.39
2023-06-06T16:15:21.493Z,69.72
2023-06-06T16:17:48.506Z,69.95
2023-06-06T16:20:15.544Z,71.20
2023-06-06T16:22:42.514Z,72.92
2023-06-06T16:25:09.951Z,74.48
2023-06-06T16:27:36.868Z,73.50
2023-06-06T16:30:04.236Z,74.36
2023-06-06T16:32:31.352Z,75.30
2023-06-06T16:34:58.341Z,75.14
2023-06-06T16:37:25.372Z,73.27
2023-06-06T16:39:52.454Z,72.65
2023-06-06T16:42:19.463Z,71.21
2023-06-06T16:44:46.374Z,71.52
2023-06-06T16:47:13.352Z,71.51
2023-06-06T16:49:40.364Z,71.85
2023-06-06T16:52:07.856Z,71.75
2023-06-06T16:54:34.848Z,72.92
2023-06-06T16:57:01.815Z,70.93
2023-06-06T16:59:30.849Z,71.61
2023-06-06T17:01:57.792Z,71.48
2023-06-06T17:04:25.042Z,71.68
2023-06-06T17:06:52.034Z,71.37
2023-06-06T17:09:21.932Z,70.66
2023-06-06T17:11:49.533Z,72.66
2023-06-06T17:21:44.224Z,71.31
2023-06-06T17:24:11.287Z,71.25
2023-06-06T17:26:38.769Z,73.28
2023-06-06T17:29:05.800Z,73.88
2023-06-06T17:31:32.847Z,74.96
2023-06-06T17:34:00.016Z,72.86
2023-06-06T17:36:27.000Z,72.02
2023-06-06T17:38:53.983Z,72.93
2023-06-06T17:41:21.027Z,73.67
2023-06-06T17:43:48.043Z,73.92
2023-06-06T17:46:15.278Z,75.37
2023-06-06T17:48:42.632Z,75.52
2023-06-06T17:51:09.667Z,75.21
2023-06-06T17:53:38.047Z,74.59
2023-06-06T17:56:07.981Z,76.72
2023-06-06T17:58:35.476Z,75.20
2023-06-06T18:01:03.095Z,75.29
2023-06-06T18:03:30.170Z,74.61
2023-06-06T18:05:58.702Z,76.46
2023-06-06T18:08:25.946Z,75.46
2023-06-06T18:10:53.282Z,75.86
2023-06-06T18:13:20.277Z,76.42
2023-06-06T18:15:47.328Z,77.27
2023-06-06T18:18:14.521Z,76.46
2023-06-06T18:21:35.439Z,77.83
2023-06-06T18:24:03.932Z,77.05
2023-06-06T18:26:31.059Z,76.07
2023-06-06T18:28:58.267Z,76.80
2023-06-06T18:31:37.335Z,77.72
2023-06-06T18:34:06.745Z,77.13
2023-06-06T18:36:33.849Z,77.34
2023-06-06T18:39:01.301Z,77.06
2023-06-06T18:41:29.137Z,77.71
2023-06-06T18:43:56.228Z,78.59
2023-06-06T18:46:23.511Z,78.53
2023-06-06T18:49:31.010Z,79.26
2023-06-06T18:51:58.459Z,78.75
2023-06-06T18:54:25.664Z,79.24
2023-06-06T18:56:52.724Z,79.53
2023-06-06T18:59:19.822Z,78.68
2023-06-06T19:01:46.912Z,79.06
2023-06-06T19:04:17.150Z,79.00
2023-06-06T19:06:44.606Z,79.64
2023-06-06T19:09:11.775Z,80.19
2023-06-06T19:11:38.792Z,80.61
2023-06-06T19:14:05.832Z,80.81
2023-06-06T19:16:33.056Z,81.21
2023-06-06T19:19:00.091Z,81.84
2023-06-06T19:21:27.242Z,83.26
2023-06-06T19:23:54.497Z,84.81
2023-06-06T19:26:22.763Z,84.16
2023-06-06T19:28:50.162Z,84.29
2023-06-06T19:31:17.352Z,84.96
2023-06-06T19:33:44.435Z,84.89
2023-06-06T19:36:11.449Z,84.31
2023-06-06T19:38:44.407Z,85.42
2023-06-06T19:41:11.585Z,86.40
2023-06-06T19:43:39.932Z,86.13
2023-06-06T19:46:07.043Z,85.26
2023-06-06T19:48:34.146Z,85.49
2023-06-06T19:51:03.780Z,86.39
2023-06-06T19:53:31.637Z,87.99
2023-06-06T19:55:58.704Z,89.10
2023-06-06T19:58:25.893Z,89.37
2023-06-06T20:01:01.824Z,89.60
2023-06-06T20:03:29.385Z,88.52
2023-06-06T20:05:57.066Z,89.55
2023-06-06T20:08:26.204Z,88.22
2023-06-06T20:10:53.378Z,88.20
2023-06-06T20:13:20.677Z,88.88
2023-06-06T20:15:48.400Z,89.29
2023-06-06T20:18:16.090Z,87.85
2023-06-06T20:20:43.830Z,88.58
2023-06-06T20:23:13.065Z,89.05
2023-06-06T20:25:44.067Z,89.68
2023-06-06T20:28:11.396Z,88.94
2023-06-06T20:30:38.865Z,89.60
2023-06-06T20:33:06.205Z,89.70
2023-06-06T20:35:33.273Z,91.05
2023-06-06T20:38:00.267Z,91.31
2023-06-06T20:40:27.242Z,91.71
2023-06-06T20:42:54.333Z,92.57
2023-06-06T20:45:21.664Z,92.53
2023-06-06T20:47:49.336Z,92.28
2023-06-06T20:50:16.812Z,92.01
2023-06-06T20:52:43.812Z,92.06
2023-06-06T20:55:11.385Z,92.68
2023-06-06T20:57:40.061Z,92.96
2023-06-06T21:00:08.272Z,94.33
2023-06-06T21:02:35.616Z,94.30
2023-06-06T21:05:03.588Z,93.21
2023-06-06T21:07:30.629Z,93.69
2023-06-06T21:09:57.611Z,93.03
2023-06-06T21:12:24.853Z,92.43
2023-06-06T21:14:52.300Z,93.55
2023-06-06T21:17:21.545Z,93.09
2023-06-06T21:19:48.648Z,92.45
2023-06-06T21:22:15.711Z,93.35
2023-06-06T21:24:42.691Z,93.48
2023-06-06T21:27:09.979Z,93.20
2023-06-06T21:29:37.341Z,93.60
2023-06-06T21:32:04.570Z,93.04
2023-06-06T21:34:32.030Z,93.17
2023-06-06T21:36:59.069Z,93.63
2023-06-06T21:39:26.300Z,93.38
2023-06-06T21:41:53.382Z,93.95
2023-06-06T21:44:20.382Z,95.37
2023-06-06T21:46:47.431Z,95.90
2023-06-06T21:49:14.723Z,96.36
2023-06-06T21:51:41.928Z,96.94
2023-06-06T21:54:08.936Z,96.50
2023-06-06T21:56:35.890Z,96.86
2023-06-06T21:59:02.851Z,95.71
2023-06-06T22:01:29.883Z,96.75
2023-06-06T22:03:56.884Z,96.81
2023-06-06T22:06:23.864Z,98.64
2023-06-06T22:08:53.336Z,97.71
2023-06-06T22:11:20.409Z,97.18
2023-06-06T22:13:47.593Z,98.90
2023-06-06T22:16:14.558Z,99.90
2023-06-06T22:18:41.549Z,99.71
2023-06-06T22:21:08.512Z,100.00
2023-06-06T22:23:35.474Z,100.00
2023-06-06T22:26:11.614Z,100.00
2023-06-06T22:28:39.336Z,100.00
2023-06-06T22:31:06.327Z,100.00
2023-06-06T22:33:33.315Z,100.00
2023-06-06T22:36:00.274Z,100.00
2023-06-06T22:38:27.335Z,100.00
2023-06-06T22:40:54.318Z,100.00
2023-06-06T22:43:21.320Z,100.00
2023-06-06T22:45:48.277Z,100.00
2023-06-06T22:48:15.299Z,100.00
2023-06-06T22:50:42.263Z,100.00
2023-06-06T22:53:09.266Z,100.00
2023-06-06T22:55:36.240Z,100.00
2023-06-06T22:58:03.247Z,100.00
2023-06-06T23:00:30.363Z,100.00
2023-06-06T23:02:57.458Z,100.00
2023-06-06T23:05:25.010Z,100.00
2023-06-06T23:07:51.954Z,100.00
2023-06-06T23:10:18.897Z,100.00
2023-06-06T23:12:45.957Z,100.00
2023-06-06T23:15:12.897Z,100.00
2023-06-06T23:17:40.223Z,100.00
2023-06-06T23:20:09.769Z,100.00
2023-06-06T23:22:43.424Z,100.00
2023-06-06T23:25:11.824Z,100.00
2023-06-06T23:27:39.559Z,100.00
2023-06-06T23:30:15.430Z,100.00
2023-06-06T23:32:43.277Z,100.00
2023-06-06T23:35:10.545Z,100.00
2023-06-06T23:37:37.515Z,100.00
2023-06-06T23:40:05.714Z,100.00
2023-06-06T23:42:32.858Z,100.00
2023-06-06T23:44:59.762Z,100.00
2023-06-06T23:47:26.753Z,100.00
2023-06-06T23:49:53.744Z,100.00
2023-06-06T23:52:20.806Z,100.00
2023-06-06T23:55:18.519Z,100.00
2023-06-06T23:57:45.672Z,100.00
